Time;durP1;ratioP1;P1;durP2;ratioP2;P2;SDS_P1;SDS_P2;PMS_P1;PMS_P2;Temp;Humidity;BMP_temperature;BMP_pressure;BME280_temperature;BME280_humidity;BME280_pressure;Samples;Min_cycle;Max_cycle;Signal;HPM_P1;HPM_P2
2023/04/26 00:00:15;;;;;;;4.15;1.88;;;4.90;99.90;;;;;;7399222;19;19930;-80
2023/04/26 00:02:45;;;;;;;7.50;1.90;;;4.00;99.90;;;;;;7398850;19;19918;-80
2023/04/26 00:05:14;;;;;;;5.80;1.42;;;4.90;99.90;;;;;;7400073;19;19950;-80
2023/04/26 00:07:44;;;;;;;8.25;1.73;;;5.60;99.90;;;;;;7398888;19;19931;-79
2023/04/26 00:10:13;;;;;;;4.50;1.50;;;4.40;99.90;;;;;;7400720;19;19918;-80
2023/04/26 00:12:42;;;;;;;7.60;1.90;;;5.00;99.90;;;;;;7398708;19;19949;-79
2023/04/26 00:15:14;;;;;;;8.45;2.38;;;4.30;99.90;;;;;;7396536;19;19922;-78
2023/04/26 00:17:43;;;;;;;4.63;1.55;;;4.10;99.90;;;;;;7405701;19;19922;-80
2023/04/26 00:20:13;;;;;;;7.93;1.75;;;4.40;99.90;;;;;;7407132;19;19918;-80
2023/04/26 00:22:42;;;;;;;4.75;1.67;;;3.90;99.90;;;;;;7405786;19;19922;-80
2023/04/26 00:25:12;;;;;;;4.22;1.65;;;3.80;99.90;;;;;;7404789;19;19923;-79
2023/04/26 00:27:42;;;;;;;10.32;2.00;;;4.50;99.90;;;;;;7404422;19;19919;-80
2023/04/26 00:30:14;;;;;;;5.03;1.38;;;3.60;99.90;;;;;;7403418;19;19933;-80
2023/04/26 00:32:43;;;;;;;6.80;1.63;;;4.60;99.90;;;;;;7405255;19;19914;-80
2023/04/26 00:35:12;;;;;;;3.78;1.58;;;3.20;99.90;;;;;;7400508;19;19926;-80
2023/04/26 00:37:41;;;;;;;2.75;1.02;;;3.00;99.90;;;;;;7404937;19;19934;-79
2023/04/26 00:40:12;;;;;;;7.30;1.50;;;4.00;99.90;;;;;;7403979;19;20265;-80
2023/04/26 00:42:41;;;;;;;4.32;1.38;;;3.90;99.90;;;;;;7402150;19;20420;-80
2023/04/26 00:45:13;;;;;;;4.35;1.95;;;3.30;99.90;;;;;;7402603;19;19922;-79
2023/04/26 00:47:42;;;;;;;;;;;4.00;99.90;;;;;;7406859;19;19926;-79
2023/04/26 00:50:11;;;;;;;3.20;1.35;;;;;;;;;;7402758;19;19914;-80
2023/04/26 00:52:41;;;;;;;4.97;1.17;;;3.00;99.90;;;;;;7403475;19;19930;-79
2023/04/26 00:55:11;;;;;;;4.75;1.25;;;4.80;99.90;;;;;;7403091;19;19930;-80
2023/04/26 00:57:40;;;;;;;3.63;1.23;;;4.60;99.90;;;;;;7404102;19;19926;-80
2023/04/26 01:00:11;;;;;;;11.00;1.70;;;3.30;99.90;;;;;;7399543;19;19921;-79
2023/04/26 01:02:43;;;;;;;6.03;1.15;;;3.20;99.90;;;;;;7403742;19;19922;-79
2023/04/26 01:05:12;;;;;;;3.42;1.00;;;4.60;99.90;;;;;;7402491;19;19923;-80
2023/04/26 01:07:41;;;;;;;5.38;1.77;;;4.50;99.90;;;;;;7403098;19;20317;-80
2023/04/26 01:10:11;;;;;;;3.28;1.05;;;3.20;99.90;;;;;;7403680;19;19922;-80
2023/04/26 01:12:41;;;;;;;4.53;1.23;;;3.20;99.90;;;;;;7404507;19;19926;-80
2023/04/26 01:15:12;;;;;;;4.75;1.40;;;3.80;99.90;;;;;;7402350;19;19929;-80
2023/04/26 01:17:48;;;;;;;5.88;1.40;;;4.00;99.90;;;;;;7403736;19;19923;-79
2023/04/26 01:20:17;;;;;;;6.45;1.67;;;3.00;99.90;;;;;;7404604;19;19929;-80
2023/04/26 01:22:48;;;;;;;6.03;1.52;;;3.30;99.90;;;;;;7403913;19;19915;-79
2023/04/26 01:25:19;;;;;;;5.35;2.05;;;3.10;99.90;;;;;;7403812;19;19922;-79
2023/04/26 01:27:48;;;;;;;4.15;1.10;;;3.30;99.90;;;;;;7402235;19;19918;-79
2023/04/26 01:30:17;;;;;;;5.88;1.42;;;4.40;99.90;;;;;;7403850;19;19923;-80
2023/04/26 01:32:46;;;;;;;3.50;1.52;;;4.40;99.90;;;;;;7405452;19;19914;-79
2023/04/26 01:35:15;;;;;;;4.90;1.77;;;;;;;;;;7400737;19;19918;-80
2023/04/26 01:37:44;;;;;;;2.90;1.40;;;3.20;99.90;;;;;;7404608;19;20241;-79
2023/04/26 01:40:16;;;;;;;4.57;1.40;;;3.20;99.90;;;;;;7405338;19;19922;-80
2023/04/26 01:42:45;;;;;;;2.40;1.10;;;4.70;99.90;;;;;;7403627;19;20352;-79
2023/04/26 01:45:13;;;;;;;2.53;1.10;;;4.10;99.90;;;;;;7402907;19;19926;-80
2023/04/26 01:47:42;;;;;;;8.30;1.70;;;3.10;99.90;;;;;;7401109;19;19918;-80
2023/04/26 01:50:12;;;;;;;4.78;1.30;;;4.20;99.90;;;;;;7402380;19;19919;-81
2023/04/26 01:52:41;;;;;;;5.22;1.65;;;3.90;99.90;;;;;;7402868;19;19926;-80
2023/04/26 01:55:11;;;;;;;2.88;1.13;;;3.90;99.90;;;;;;7401578;19;19966;-79
2023/04/26 01:57:42;;;;;;;5.07;1.20;;;3.30;99.90;;;;;;7403503;19;19922;-80
2023/04/26 02:00:12;;;;;;;4.93;1.25;;;3.00;99.90;;;;;;7403247;19;19927;-79
2023/04/26 02:02:41;;;;;;;7.78;1.00;;;4.20;99.90;;;;;;7403610;19;20305;-80
2023/04/26 02:05:12;;;;;;;3.63;1.38;;;3.40;99.90;;;;;;7402079;19;19918;-80
2023/04/26 02:07:41;;;;;;;6.40;1.30;;;3.60;99.90;;;;;;7403209;19;19933;-80
2023/04/26 02:10:11;;;;;;;4.40;1.20;;;4.40;99.90;;;;;;7403273;19;19927;-80
2023/04/26 02:12:43;;;;;;;9.07;1.67;;;3.80;99.90;;;;;;7400878;19;19918;-79
2023/04/26 02:15:12;;;;;;;5.65;1.20;;;4.50;99.90;;;;;;7400860;19;19936;-79
2023/04/26 02:17:42;;;;;;;6.68;1.20;;;4.10;99.90;;;;;;7401109;19;19922;-80
2023/04/26 02:20:12;;;;;;;6.75;2.03;;;3.10;99.90;;;;;;7401634;19;19926;-80
2023/04/26 02:22:41;;;;;;;2.45;1.25;;;2.90;99.90;;;;;;7398993;19;19919;-80
2023/04/26 02:25:10;;;;;;;4.70;1.40;;;3.40;99.90;;;;;;7400726;19;20460;-79
2023/04/26 02:27:42;;;;;;;3.30;1.40;;;3.20;99.90;;;;;;7402307;19;19986;-80
2023/04/26 02:30:12;;;;;;;9.05;1.58;;;3.90;99.90;;;;;;7400761;19;19914;-80
2023/04/26 02:32:41;;;;;;;4.43;1.50;;;3.20;99.90;;;;;;7402591;19;19930;-80
2023/04/26 02:35:11;;;;;;;4.55;1.00;;;4.40;99.90;;;;;;7400723;19;19918;-80
2023/04/26 02:37:40;;;;;;;4.03;1.30;;;3.50;99.90;;;;;;7402482;19;19962;-79
2023/04/26 02:40:12;;;;;;;5.05;1.42;;;3.80;99.90;;;;;;7399416;19;19922;-80
2023/04/26 02:42:43;;;;;;;2.88;1.00;;;3.10;99.90;;;;;;7403442;19;19919;-79
2023/04/26 02:45:12;;;;;;;4.50;1.10;;;4.30;99.90;;;;;;7402771;19;19924;-80
2023/04/26 02:47:41;;;;;;;4.18;1.35;;;3.10;99.90;;;;;;7403628;19;19944;-79
2023/04/26 02:50:11;;;;;;;10.23;1.40;;;3.90;99.90;;;;;;7403278;19;19919;-79
2023/04/26 02:52:40;;;;;;;3.45;1.10;;;3.10;99.90;;;;;;7400405;19;19921;-79
2023/04/26 02:55:10;;;;;;;2.40;1.33;;;4.50;99.90;;;;;;7400877;19;19933;-79
2023/04/26 02:57:39;;;;;;;8.25;1.25;;;3.10;99.90;;;;;;7401857;19;19922;-80
2023/04/26 03:00:12;;;;;;;3.47;1.10;;;2.30;99.90;;;;;;7399645;19;19918;-81
2023/04/26 03:02:41;;;;;;;5.93;1.42;;;4.40;99.90;;;;;;7401917;19;19926;-79
2023/04/26 03:05:11;;;;;;;4.38;1.30;;;3.60;99.90;;;;;;7401644;19;19919;-79
2023/04/26 03:07:39;;;;;;;6.00;1.02;;;4.00;99.90;;;;;;7400639;19;19938;-79
2023/04/26 03:10:10;;;;;;;4.03;1.25;;;3.50;99.90;;;;;;7399982;19;19919;-79
2023/04/26 03:12:39;;;;;;;5.40;1.20;;;4.60;99.90;;;;;;7401031;19;19922;-79
2023/04/26 03:15:11;;;;;;;8.63;1.83;;;3.30;99.90;;;;;;7402132;19;19935;-80
2023/04/26 03:17:40;;;;;;;3.15;1.40;;;3.70;99.90;;;;;;7401792;19;19922;-80
2023/04/26 03:20:10;;;;;;;3.50;1.23;;;3.20;99.90;;;;;;7400641;19;19918;-79
2023/04/26 03:22:39;;;;;;;3.78;1.30;;;2.70;99.90;;;;;;7401521;19;19926;-78
2023/04/26 03:25:09;;;;;;;4.53;1.35;;;3.30;99.90;;;;;;7399217;19;19922;-79
2023/04/26 03:27:38;;;;;;;5.40;1.40;;;4.10;99.90;;;;;;7399789;19;19922;-79
2023/04/26 03:30:12;;;;;;;5.18;1.25;;;4.00;99.90;;;;;;7400058;19;19926;-79
2023/04/26 03:32:41;;;;;;;6.50;1.40;;;2.80;99.90;;;;;;7402668;19;19918;-80
2023/04/26 03:35:11;;;;;;;4.57;1.80;;;3.10;99.90;;;;;;7401715;19;19919;-80
2023/04/26 03:37:41;;;;;;;3.05;1.30;;;3.40;99.90;;;;;;7402227;19;20297;-79
2023/04/26 03:40:11;;;;;;;2.85;1.02;;;3.00;99.90;;;;;;7399965;19;19926;-79
2023/04/26 03:42:40;;;;;;;6.65;1.58;;;4.10;99.90;;;;;;7401865;19;20260;-79
2023/04/26 03:45:13;;;;;;;4.28;1.40;;;3.50;99.90;;;;;;7399320;19;19918;-79
2023/04/26 03:47:41;;;;;;;6.43;2.40;;;2.90;99.90;;;;;;7400903;19;19942;-80
2023/04/26 03:50:11;;;;;;;3.92;1.67;;;2.80;99.90;;;;;;7401439;19;19923;-80
2023/04/26 03:52:40;;;;;;;4.88;1.73;;;4.30;99.90;;;;;;7405900;19;19926;-79
2023/04/26 03:55:10;;;;;;;5.60;2.60;;;2.50;99.90;;;;;;7406975;19;20344;-80
2023/04/26 03:57:40;;;;;;;6.20;2.58;;;3.70;99.90;;;;;;7407453;19;19915;-80
2023/04/26 04:00:13;;;;;;;7.55;2.58;;;3.10;99.90;;;;;;7403044;19;19907;-79
2023/04/26 04:02:43;;;;;;;2.67;1.55;;;3.00;99.90;;;;;;7405211;19;20365;-80
2023/04/26 04:05:12;;;;;;;7.45;1.90;;;3.70;99.90;;;;;;7406231;19;19929;-79
2023/04/26 04:07:40;;;;;;;4.75;1.30;;;4.10;99.90;;;;;;7406044;19;19922;-80
2023/04/26 04:10:11;;;;;;;3.90;1.02;;;4.10;99.90;;;;;;7404118;19;19922;-80
2023/04/26 04:12:39;;;;;;;5.50;1.30;;;3.00;99.90;;;;;;7404793;19;19923;-80
2023/04/26 04:15:12;;;;;;;5.00;1.40;;;4.20;99.90;;;;;;7405821;19;19922;-79
2023/04/26 04:17:41;;;;;;;3.53;1.20;;;3.00;99.90;;;;;;7405820;19;20272;-79
2023/04/26 04:20:11;;;;;;;5.03;1.30;;;3.80;99.90;;;;;;7405075;19;19918;-79
2023/04/26 04:22:40;;;;;;;3.97;1.20;;;3.20;99.90;;;;;;7406252;19;20553;-79
2023/04/26 04:25:10;;;;;;;3.85;1.20;;;3.00;99.90;;;;;;7404107;19;19930;-79
2023/04/26 04:27:41;;;;;;;3.60;1.40;;;4.00;99.90;;;;;;7405666;19;19923;-79
2023/04/26 04:30:13;;;;;;;4.95;1.30;;;2.80;99.90;;;;;;7406072;19;19994;-80
2023/04/26 04:32:44;;;;;;;6.18;1.85;;;3.70;99.90;;;;;;7402410;19;19922;-77
2023/04/26 04:35:13;;;;;;;3.75;0.93;;;3.80;99.90;;;;;;7403641;19;20340;-77
2023/04/26 04:37:42;;;;;;;3.78;1.00;;;4.20;99.90;;;;;;7404857;19;19937;-77
2023/04/26 04:40:12;;;;;;;3.80;1.00;;;3.20;99.90;;;;;;7405728;19;19924;-77
2023/04/26 04:42:43;;;;;;;3.67;1.02;;;4.20;99.90;;;;;;7403804;19;19940;-78
2023/04/26 04:45:15;;;;;;;1.42;1.23;;;3.00;99.90;;;;;;7404521;19;20369;-78
2023/04/26 04:47:44;;;;;;;2.25;0.98;;;3.10;99.90;;;;;;7406041;19;19927;-77
2023/04/26 04:50:13;;;;;;;2.00;1.50;;;4.10;99.90;;;;;;7404766;19;19939;-77
2023/04/26 04:52:42;;;;;;;3.67;1.23;;;4.40;99.90;;;;;;7405747;19;19922;-78
2023/04/26 04:55:11;;;;;;;6.57;1.50;;;3.90;99.90;;;;;;7404816;19;19918;-77
2023/04/26 04:57:41;;;;;;;2.33;1.55;;;3.50;99.90;;;;;;7404371;19;20009;-77
2023/04/26 05:00:11;;;;;;;4.03;1.77;;;3.50;99.90;;;;;;7404258;19;19923;-77
2023/04/26 05:02:43;;;;;;;4.15;1.38;;;3.40;99.90;;;;;;7403883;19;19918;-77
2023/04/26 05:05:12;;;;;;;2.53;1.02;;;3.70;99.90;;;;;;7404307;19;19922;-78
2023/04/26 05:07:41;;;;;;;5.68;1.40;;;4.10;99.90;;;;;;7404721;19;19914;-77
2023/04/26 05:10:11;;;;;;;3.15;1.13;;;3.60;99.90;;;;;;7404532;19;20313;-77
2023/04/26 05:12:40;;;;;;;4.93;1.52;;;4.10;99.90;;;;;;7403842;19;20266;-78
2023/04/26 05:15:10;;;;;;;7.45;2.38;;;3.90;99.90;;;;;;7404309;19;19922;-78
2023/04/26 05:17:39;;;;;;;4.80;1.40;;;3.70;99.90;;;;;;7404393;19;19921;-77
2023/04/26 05:20:11;;;;;;;9.45;1.52;;;3.30;99.90;;;;;;7405197;19;19953;-77
2023/04/26 05:22:40;;;;;;;2.90;1.25;;;3.90;99.90;;;;;;7404624;19;19918;-77
2023/04/26 05:25:12;;;;;;;2.17;1.20;;;4.50;99.90;;;;;;7404558;19;19915;-78
2023/04/26 05:27:41;;;;;;;2.50;1.40;;;4.00;99.90;;;;;;7401689;19;20011;-77
2023/04/26 05:30:11;;;;;;;4.43;1.25;;;4.50;99.90;;;;;;7402844;19;20014;-77
2023/04/26 05:32:41;;;;;;;4.43;2.08;;;4.00;99.90;;;;;;7403042;19;19978;-78
2023/04/26 05:35:13;;;;;;;7.43;2.08;;;4.10;99.90;;;;;;7400782;19;19918;-77
2023/04/26 05:37:42;;;;;;;2.95;1.10;;;3.90;99.90;;;;;;7403728;19;19925;-77
2023/04/26 05:40:12;;;;;;;4.35;1.20;;;4.90;99.90;;;;;;7402602;19;19930;-78
2023/04/26 05:42:41;;;;;;;3.67;1.08;;;4.10;99.90;;;;;;7403189;19;20274;-78
2023/04/26 05:45:11;;;;;;;5.50;1.20;;;4.80;99.90;;;;;;7401468;19;19925;-78
2023/04/26 05:47:40;;;;;;;2.90;0.95;;;5.10;99.90;;;;;;7401611;19;19914;-78
2023/04/26 05:50:13;;;;;;;4.88;1.60;;;4.30;99.90;;;;;;7400264;19;19923;-78
2023/04/26 05:52:41;;;;;;;4.97;1.30;;;4.40;99.90;;;;;;7401435;19;20275;-77
2023/04/26 05:55:12;;;;;;;5.28;1.33;;;4.40;99.90;;;;;;7404441;19;19918;-78
2023/04/26 05:57:41;;;;;;;4.38;1.20;;;4.70;99.90;;;;;;7401833;19;19929;-77
2023/04/26 06:00:11;;;;;;;1.65;1.05;;;5.00;99.90;;;;;;7396762;19;20351;-77
2023/04/26 06:02:40;;;;;;;5.07;1.33;;;4.50;99.90;;;;;;7398721;19;19923;-76
2023/04/26 06:05:09;;;;;;;3.25;1.30;;;4.70;99.90;;;;;;7402264;19;19929;-78
2023/04/26 06:07:41;;;;;;;3.28;1.08;;;4.80;99.90;;;;;;7400829;19;19923;-77
2023/04/26 06:10:12;;;;;;;6.55;1.40;;;5.50;99.90;;;;;;7400214;19;19918;-76
2023/04/26 06:12:41;;;;;;;2.95;1.23;;;4.90;99.90;;;;;;7403578;19;19939;-79
2023/04/26 06:15:11;;;;;;;3.55;1.10;;;4.80;99.90;;;;;;7401909;19;20344;-80
2023/04/26 06:17:40;;;;;;;4.63;1.00;;;4.70;99.90;;;;;;7403254;19;19941;-79
2023/04/26 06:20:12;;;;;;;6.60;1.45;;;4.70;99.90;;;;;;7404265;19;19953;-79
2023/04/26 06:22:43;;;;;;;3.28;1.10;;;4.70;99.90;;;;;;7400974;19;20216;-78
2023/04/26 06:25:13;;;;;;;3.53;1.15;;;5.10;99.90;;;;;;7403008;19;19930;-78
2023/04/26 06:27:42;;;;;;;1.77;0.90;;;5.40;99.90;;;;;;7401310;19;20251;-77
2023/04/26 06:30:11;;;;;;;3.78;1.60;;;4.90;99.90;;;;;;7401700;19;19923;-78
2023/04/26 06:32:42;;;;;;;7.47;1.17;;;4.90;99.90;;;;;;7401221;19;20021;-77
2023/04/26 06:35:12;;;;;;;6.97;1.58;;;4.20;99.90;;;;;;7401202;19;19918;-77
2023/04/26 06:37:43;;;;;;;2.17;1.02;;;5.10;99.90;;;;;;7398196;19;20245;-77
2023/04/26 06:40:14;;;;;;;5.85;1.25;;;5.10;99.90;;;;;;7401022;19;20477;-77
2023/04/26 06:42:43;;;;;;;2.88;1.10;;;5.20;99.90;;;;;;7400420;19;19922;-77
2023/04/26 06:45:13;;;;;;;5.05;1.25;;;5.70;99.90;;;;;;7401959;19;19922;-78
2023/04/26 06:47:42;;;;;;;7.43;1.55;;;5.30;99.90;;;;;;7401160;19;19938;-78
2023/04/26 06:50:12;;;;;;;4.78;1.55;;;5.70;99.90;;;;;;7402396;19;19927;-78
2023/04/26 06:52:44;;;;;;;3.55;1.20;;;5.20;99.90;;;;;;7396402;19;19923;-77
2023/04/26 06:55:13;;;;;;;5.55;1.42;;;5.50;99.90;;;;;;7399637;19;19918;-77
2023/04/26 06:57:41;;;;;;;1.65;1.10;;;5.50;99.90;;;;;;7398015;19;19929;-78
2023/04/26 07:00:12;;;;;;;3.28;1.30;;;5.40;99.90;;;;;;7401664;19;19914;-78
2023/04/26 07:02:41;;;;;;;4.63;1.10;;;5.20;99.90;;;;;;7399265;19;20300;-78
2023/04/26 07:05:10;;;;;;;3.95;1.08;;;6.30;99.90;;;;;;7400963;19;19929;-77
2023/04/26 07:07:39;;;;;;;2.88;1.30;;;5.20;99.90;;;;;;7400803;19;19946;-76
2023/04/26 07:10:12;;;;;;;3.47;1.17;;;5.90;99.90;;;;;;7400956;19;19926;-77
2023/04/26 07:12:40;;;;;;;7.95;1.88;;;5.10;99.90;;;;;;7400284;19;19923;-77
2023/04/26 07:15:11;;;;;;;5.25;1.80;;;5.30;99.90;;;;;;7401780;19;19914;-77
2023/04/26 07:17:40;;;;;;;2.70;0.90;;;5.30;99.90;;;;;;7397691;19;20386;-77
2023/04/26 07:20:10;;;;;;;4.55;1.17;;;5.30;99.90;;;;;;7402707;19;20625;-77
2023/04/26 07:22:40;;;;;;;4.80;1.10;;;5.30;99.90;;;;;;7399369;19;20868;-76
2023/04/26 07:25:11;;;;;;;1.67;0.90;;;5.80;99.90;;;;;;7399645;19;19927;-77
2023/04/26 07:27:40;;;;;;;2.95;0.85;;;5.40;99.90;;;;;;7399363;19;19919;-78
2023/04/26 07:30:11;;;;;;;2.53;0.98;;;5.20;99.90;;;;;;7399086;19;20351;-78
2023/04/26 07:32:40;;;;;;;2.92;1.40;;;5.30;99.90;;;;;;7399480;19;19934;-77
2023/04/26 07:35:14;;;;;;;6.40;2.10;;;5.50;99.90;;;;;;7400295;19;20276;-78
2023/04/26 07:37:45;;;;;;;3.45;1.10;;;5.40;99.90;;;;;;7398982;19;19937;-78
2023/04/26 07:40:17;;;;;;;5.80;1.50;;;5.50;99.90;;;;;;7400141;19;19946;-78
2023/04/26 07:42:46;;;;;;;3.13;1.27;;;5.40;99.90;;;;;;7398412;19;19919;-78
2023/04/26 07:45:16;;;;;;;2.47;1.13;;;5.60;99.90;;;;;;7398812;19;20356;-78
2023/04/26 07:47:46;;;;;;;7.15;1.30;;;5.60;99.90;;;;;;7400536;19;19927;-78
2023/04/26 07:50:15;;;;;;;5.20;1.98;;;5.90;99.90;;;;;;7401207;19;19925;-77
2023/04/26 07:52:44;;;;;;;3.47;1.10;;;5.80;99.90;;;;;;7393122;19;19914;-77
2023/04/26 07:55:16;;;;;;;5.93;1.60;;;5.80;99.90;;;;;;7397633;19;19984;-77
2023/04/26 07:57:45;;;;;;;4.55;1.48;;;5.90;99.90;;;;;;7396953;19;19929;-76
2023/04/26 08:00:16;;;;;;;6.45;1.48;;;6.20;99.90;;;;;;7398537;19;19926;-77
2023/04/26 08:02:45;;;;;;;5.25;1.40;;;6.20;99.90;;;;;;7396534;19;19939;-77
2023/04/26 08:05:14;;;;;;;4.07;1.40;;;6.30;99.90;;;;;;7396450;19;19922;-78
2023/04/26 08:07:44;;;;;;;3.58;1.55;;;6.30;99.90;;;;;;7397936;19;19918;-77
2023/04/26 08:10:16;;;;;;;4.40;1.50;;;6.30;99.90;;;;;;7395730;19;19929;-77
2023/04/26 08:12:45;;;;;;;2.80;1.50;;;6.80;99.90;;;;;;7397468;19;19926;-77
2023/04/26 08:15:15;;;;;;;2.35;1.02;;;6.60;99.90;;;;;;7397784;19;19927;-77
2023/04/26 08:17:43;;;;;;;4.05;2.00;;;6.50;99.90;;;;;;7396551;19;19923;-77
2023/04/26 08:20:13;;;;;;;6.40;1.90;;;6.40;99.90;;;;;;7400280;19;19929;-77
2023/04/26 08:22:42;;;;;;;7.32;2.83;;;6.50;99.90;;;;;;7396131;19;19915;-77
2023/04/26 08:25:12;;;;;;;4.53;1.45;;;6.60;99.90;;;;;;7395886;19;19922;-78
2023/04/26 08:27:44;;;;;;;4.47;1.20;;;7.20;99.90;;;;;;7399127;19;19928;-77
2023/04/26 08:30:13;;;;;;;4.47;1.95;;;6.60;99.90;;;;;;7397959;19;20298;-77
2023/04/26 08:32:42;;;;;;;2.53;1.20;;;6.60;99.90;;;;;;7397823;19;19914;-77
2023/04/26 08:35:12;;;;;;;5.18;1.55;;;6.60;99.90;;;;;;7398030;19;19922;-78
2023/04/26 08:37:41;;;;;;;5.50;2.25;;;6.70;99.90;;;;;;7397095;19;19923;-77
2023/04/26 08:40:11;;;;;;;10.27;1.52;;;6.90;99.90;;;;;;7404745;19;20352;-77
2023/04/26 08:42:44;;;;;;;3.20;1.63;;;6.90;99.90;;;;;;7404958;19;19910;-77
2023/04/26 08:45:13;;;;;;;12.48;2.08;;;6.90;99.90;;;;;;7405201;19;19925;-77
2023/04/26 08:47:46;;;;;;;3.92;1.27;;;7.70;99.90;;;;;;7404756;19;19918;-77
2023/04/26 08:50:16;;;;;;;6.80;1.77;;;7.00;99.90;;;;;;7403687;19;19942;-77
2023/04/26 08:52:46;;;;;;;4.97;1.63;;;7.00;99.90;;;;;;7403462;19;19923;-77
2023/04/26 08:55:16;;;;;;;3.08;1.50;;;7.00;99.90;;;;;;7404344;19;19919;-78
2023/04/26 08:57:49;;;;;;;5.22;1.50;;;7.00;99.90;;;;;;7401101;19;19954;-76
2023/04/26 09:00:21;;;;;;;5.60;2.40;;;6.80;99.90;;;;;;7406105;19;20402;-77
2023/04/26 09:02:51;;;;;;;3.63;1.33;;;6.90;99.90;;;;;;7403591;19;19943;-78
2023/04/26 09:05:23;;;;;;;5.75;2.28;;;6.70;99.90;;;;;;7403401;19;19943;-79
2023/04/26 09:07:59;;;;;;;3.75;1.25;;;6.80;99.90;;;;;;7404022;19;19923;-79
2023/04/26 09:10:29;;;;;;;4.47;1.85;;;7.00;99.90;;;;;;7403286;19;19922;-78
2023/04/26 09:13:00;;;;;;;4.65;1.40;;;7.00;99.90;;;;;;7403158;19;20355;-78
2023/04/26 09:15:29;;;;;;;4.28;1.90;;;7.90;99.90;;;;;;7405421;19;19926;-78
2023/04/26 09:18:17;;;;;;;4.85;1.85;;;7.10;99.90;;;;;;7401329;19;20344;-79
2023/04/26 09:20:46;;;;;;;4.72;2.47;;;7.20;99.90;;;;;;7404261;19;20336;-78
2023/04/26 09:23:16;;;;;;;2.10;0.60;;;5.40;99.90;;;;;;7401966;19;19929;-79
2023/04/26 09:25:45;;;;;;;3.67;0.73;;;6.70;99.90;;;;;;7402703;19;20372;-78
2023/04/26 09:28:26;;;;;;;3.55;1.40;;;6.40;99.90;;;;;;7402718;19;19999;-77
2023/04/26 09:30:55;;;;;;;4.65;1.25;;;6.20;99.90;;;;;;7403325;19;19923;-78
2023/04/26 09:33:24;;;;;;;1.77;0.75;;;6.00;99.90;;;;;;7401956;19;19933;-77
2023/04/26 09:35:53;;;;;;;2.85;0.98;;;6.10;99.90;;;;;;7400586;19;19918;-77
2023/04/26 09:38:21;;;;;;;2.03;1.08;;;6.70;99.90;;;;;;7401998;19;19933;-78
2023/04/26 09:40:53;;;;;;;4.60;1.50;;;6.00;99.90;;;;;;7403426;19;19925;-77
2023/04/26 09:43:25;;;;;;;3.60;1.95;;;6.00;99.90;;;;;;7403117;19;19939;-78
2023/04/26 09:45:55;;;;;;;;;;;6.10;99.90;;;;;;7405518;19;20280;-78
2023/04/26 09:48:25;;;;;;;2.85;0.80;;;6.70;99.90;;;;;;7401020;19;19937;-77
2023/04/26 09:50:56;;;;;;;4.57;1.15;;;6.20;99.90;;;;;;7402286;19;19932;-78
2023/04/26 09:53:30;;;;;;;17.85;4.32;;;7.00;99.90;;;;;;7403609;19;20281;-78
2023/04/26 09:56:07;;;;;;;5.78;2.42;;;6.50;99.90;;;;;;7401532;19;19926;-78
2023/04/26 09:58:40;;;;;;;5.90;2.72;;;6.30;99.90;;;;;;7401842;19;19910;-77
2023/04/26 10:01:10;;;;;;;4.35;1.00;;;6.40;99.90;;;;;;7402068;19;19923;-78
2023/04/26 10:03:39;;;;;;;6.97;2.50;;;7.70;99.90;;;;;;7402411;19;19918;-77
2023/04/26 10:06:09;;;;;;;4.90;1.17;;;7.00;99.90;;;;;;7402675;19;19929;-77
2023/04/26 10:08:38;;;;;;;4.10;1.85;;;6.70;99.90;;;;;;7402791;19;19930;-78
2023/04/26 10:11:09;;;;;;;2.80;0.65;;;6.80;99.90;;;;;;7399558;19;19929;-78
2023/04/26 10:13:41;;;;;;;7.93;1.10;;;6.90;99.90;;;;;;7400536;19;19926;-77
2023/04/26 10:23:42;;;;;;;7.93;1.05;;;7.20;99.90;;;;;;7395794;19;20417;-78
2023/04/26 10:26:52;;;;;;;6.75;2.85;;;7.20;99.90;;;;;;7398337;19;19949;-79
2023/04/26 10:29:24;;;;;;;1.40;0.60;;;7.40;99.90;;;;;;7399142;19;19926;-80
2023/04/26 10:32:15;;;;;;;1.85;0.70;;;7.50;99.90;;;;;;7402737;19;19922;-82
2023/04/26 10:34:44;;;;;;;3.25;0.55;;;7.60;99.90;;;;;;7405141;19;19926;-81
2023/04/26 10:37:15;;;;;;;3.55;0.95;;;7.70;99.90;;;;;;7402806;19;19914;-79
2023/04/26 10:39:45;;;;;;;10.00;1.73;;;7.90;99.90;;;;;;7401022;19;20344;-81
2023/04/26 10:42:26;;;;;;;4.05;0.80;;;7.80;99.90;;;;;;7399498;19;19930;-80
2023/04/26 10:44:59;;;;;;;1.25;0.70;;;7.90;99.90;;;;;;7399418;19;19919;-78
2023/04/26 10:47:31;;;;;;;3.15;0.75;;;8.50;99.90;;;;;;7400900;19;19958;-79
2023/04/26 10:50:07;;;;;;;2.40;0.70;;;8.10;99.90;;;;;;7401808;19;19914;-79
2023/04/26 10:52:37;;;;;;;6.25;0.95;;;8.30;99.90;;;;;;7401537;19;20284;-79
2023/04/26 10:55:07;;;;;;;1.50;0.60;;;8.30;99.90;;;;;;7401263;19;19930;-79
2023/04/26 10:57:50;;;;;;;2.05;1.00;;;8.40;99.90;;;;;;7399677;19;19937;-80
2023/04/26 11:00:31;;;;;;;1.20;0.50;;;8.30;99.90;;;;;;7398785;19;19921;-80
2023/04/26 11:03:07;;;;;;;1.70;0.68;;;8.10;99.90;;;;;;7400286;19;19930;-80
2023/04/26 11:06:03;;;;;;;1.85;1.00;;;7.90;99.90;;;;;;7400600;19;19925;-79
2023/04/26 11:08:35;;;;;;;2.50;0.90;;;7.80;99.90;;;;;;7401367;19;19923;-79
2023/04/26 11:11:12;;;;;;;7.63;1.20;;;7.60;99.90;;;;;;7398795;19;19910;-75
2023/04/26 11:13:42;;;;;;;6.63;1.42;;;7.40;99.90;;;;;;7399757;19;19918;-76
2023/04/26 11:16:16;;;;;;;5.88;2.00;;;7.50;99.90;;;;;;7400726;19;19922;-75
2023/04/26 11:18:46;;;;;;;2.97;1.38;;;7.30;99.90;;;;;;7399438;19;19919;-76
2023/04/26 11:21:18;;;;;;;9.05;1.80;;;7.50;99.90;;;;;;7402749;19;19986;-77
2023/04/26 11:23:55;;;;;;;6.75;1.60;;;8.10;99.90;;;;;;7400650;19;20372;-77
2023/04/26 11:26:24;;;;;;;8.73;1.40;;;7.70;99.90;;;;;;7398460;19;20660;-76
2023/04/26 11:28:53;;;;;;;7.50;2.85;;;8.70;99.90;;;;;;7399880;19;19919;-75
2023/04/26 11:31:24;;;;;;;16.80;8.75;;;7.90;99.90;;;;;;7400898;19;19974;-76
2023/04/26 11:33:53;;;;;;;5.10;1.73;;;7.90;99.90;;;;;;7399073;19;20238;-77
2023/04/26 11:36:23;;;;;;;3.40;1.30;;;8.00;99.90;;;;;;7399085;19;19928;-76
2023/04/26 11:38:52;;;;;;;7.55;3.22;;;8.20;99.90;;;;;;7396600;19;19914;-77
2023/04/26 11:41:25;;;;;;;3.88;1.15;;;8.00;99.90;;;;;;7399304;19;20345;-77
2023/04/26 11:43:55;;;;;;;5.10;1.25;;;8.10;99.90;;;;;;7399416;19;19925;-77
2023/04/26 11:46:27;;;;;;;5.72;2.30;;;8.20;99.90;;;;;;7397655;19;19942;-77
2023/04/26 11:48:56;;;;;;;6.57;2.10;;;8.20;99.90;;;;;;7396410;19;19978;-77
2023/04/26 11:51:25;;;;;;;2.50;1.75;;;8.20;99.90;;;;;;7398548;19;19926;-76
2023/04/26 11:53:55;;;;;;;8.60;1.45;;;8.10;99.90;;;;;;7399125;19;19922;-77
2023/04/26 11:56:23;;;;;;;2.92;0.90;;;8.00;99.90;;;;;;7398754;19;19923;-77
2023/04/26 11:58:53;;;;;;;9.63;2.50;;;7.70;99.90;;;;;;7395848;19;19923;-76
2023/04/26 12:01:26;;;;;;;4.82;1.20;;;7.50;99.90;;;;;;7397174;19;19922;-76
2023/04/26 12:03:56;;;;;;;2.83;0.77;;;7.60;99.90;;;;;;7399336;19;19923;-76
2023/04/26 12:06:32;;;;;;;7.53;1.90;;;7.30;99.90;;;;;;7397698;19;20293;-77
2023/04/26 12:09:05;;;;;;;3.10;1.08;;;7.30;99.90;;;;;;7400391;19;19946;-76
2023/04/26 12:11:34;;;;;;;1.60;1.08;;;7.10;99.90;;;;;;7396047;19;19942;-76
2023/04/26 12:14:03;;;;;;;5.70;1.38;;;7.30;99.90;;;;;;7405977;19;19971;-77
2023/04/26 12:16:38;;;;;;;3.70;1.10;;;7.00;99.90;;;;;;7404196;19;19915;-76
2023/04/26 12:19:07;;;;;;;4.30;1.00;;;7.10;99.90;;;;;;7403734;19;19918;-76
2023/04/26 12:21:43;;;;;;;1.02;0.77;;;7.10;99.90;;;;;;7406975;19;19922;-77
2023/04/26 12:24:28;;;;;;;17.40;3.72;;;7.10;99.90;;;;;;7403675;19;19922;-76
2023/04/26 12:26:57;;;;;;;1.38;0.80;;;7.10;99.90;;;;;;7405300;19;19933;-77
2023/04/26 12:29:27;;;;;;;1.63;1.02;;;7.00;99.90;;;;;;7405531;19;20677;-77
2023/04/26 12:31:59;;;;;;;1.92;0.95;;;7.20;99.90;;;;;;7406105;19;20260;-77
2023/04/26 12:34:29;;;;;;;11.13;1.95;;;7.40;99.90;;;;;;7405492;19;19926;-77
2023/04/26 12:36:57;;;;;;;4.38;1.65;;;7.30;99.90;;;;;;7405185;19;19925;-76
2023/04/26 12:39:26;;;;;;;3.42;0.80;;;7.60;99.90;;;;;;7403288;19;19933;-76
2023/04/26 12:41:55;;;;;;;0.75;0.65;;;7.70;99.90;;;;;;7403407;19;19925;-77
2023/04/26 12:44:25;;;;;;;5.75;1.90;;;7.70;99.90;;;;;;7398971;19;19914;-76
2023/04/26 12:46:54;;;;;;;2.10;0.90;;;7.70;99.90;;;;;;7402708;19;20350;-76
2023/04/26 12:49:26;;;;;;;2.85;1.10;;;7.80;99.90;;;;;;7404604;19;19929;-76
2023/04/26 12:51:55;;;;;;;3.17;1.00;;;7.90;99.90;;;;;;7403624;19;19922;-76
2023/04/26 12:54:24;;;;;;;3.08;1.00;;;7.90;99.90;;;;;;7404405;19;19982;-76
2023/04/26 12:56:53;;;;;;;3.40;0.77;;;7.90;99.90;;;;;;7403690;19;20638;-77
2023/04/26 12:59:22;;;;;;;1.92;0.70;;;8.00;99.90;;;;;;7400970;19;19935;-76
2023/04/26 13:01:50;;;;;;;1.73;0.85;;;8.00;99.90;;;;;;7403136;19;19926;-76
2023/04/26 13:04:19;;;;;;;6.30;0.90;;;8.00;99.90;;;;;;7404676;19;19925;-76
2023/04/26 13:06:51;;;;;;;1.92;1.20;;;8.00;99.90;;;;;;7404890;19;19927;-77
2023/04/26 13:09:20;;;;;;;2.83;1.90;;;8.00;99.90;;;;;;7404606;19;19914;-76
2023/04/26 13:11:49;;;;;;;3.05;1.17;;;8.00;99.90;;;;;;7404271;19;19919;-76
2023/04/26 13:14:18;;;;;;;2.10;0.80;;;8.10;99.90;;;;;;7402579;19;19926;-76
2023/04/26 13:16:47;;;;;;;3.40;0.85;;;8.10;99.90;;;;;;7399636;19;20337;-75
2023/04/26 13:19:16;;;;;;;4.47;1.13;;;8.30;99.90;;;;;;7400846;19;19915;-76
2023/04/26 13:21:45;;;;;;;3.28;0.90;;;8.20;99.90;;;;;;7402006;19;20556;-76